Time;durP1;ratioP1;P1;durP2;ratioP2;P2;SDS_P1;SDS_P2;PMS_P1;PMS_P2;Temp;Humidity;BMP_temperature;BMP_pressure;BME280_temperature;BME280_humidity;BME280_pressure;Samples;Min_cycle;Max_cycle;Signal;HPM_P1;HPM_P2
2022/02/09 00:00:04;;;;;;;4.82;1.20;;;;;;;6.10;100.00;100196.72;5025986;28;20029;-70
2022/02/09 00:03:15;;;;;;;3.77;1.20;;;;;;;6.04;100.00;100197.25;5018092;28;20095;-70
2022/02/09 00:05:30;;;;;;;6.03;1.40;;;;;;;6.16;100.00;100216.78;5021531;28;20052;-70
2022/02/09 00:10:21;;;;;;;2.08;1.25;;;;;;;6.24;100.00;100213.41;5024821;28;20037;-70
2022/02/09 00:12:55;;;;;;;2.30;1.27;;;;;;;6.08;100.00;100192.47;5019433;28;20049;-70
2022/02/09 00:15:32;;;;;;;6.88;1.30;;;;;;;6.21;100.00;100214.53;5023172;28;20040;-70
2022/02/09 00:21:00;;;;;;;1.75;1.27;;;;;;;5.98;100.00;100180.84;5028995;28;20064;-71
2022/02/09 00:34:18;;;;;;;2.78;1.52;;;;;;;6.33;100.00;100212.53;5023996;28;20126;-70
2022/02/09 00:39:29;;;;;;;2.80;1.60;;;;;;;6.29;100.00;100211.13;5020672;28;22339;-70
2022/02/09 00:44:38;;;;;;;2.75;1.42;;;;;;;6.32;100.00;100202.78;5025566;28;20082;-71
2022/02/09 01:57:10;;;;;;;3.20;1.40;;;;;;;6.19;100.00;100169.97;5022460;28;20083;-70
2022/02/09 01:59:37;;;;;;;4.85;1.75;;;;;;;6.21;100.00;100176.91;5017716;28;20080;-70
2022/02/09 02:02:03;;;;;;;7.07;1.77;;;;;;;6.14;100.00;100154.28;5017805;28;20031;-70
2022/02/09 02:04:29;;;;;;;3.72;1.73;;;;;;;6.16;100.00;100157.66;5018416;28;20105;-70
2022/02/09 02:06:55;;;;;;;5.05;1.50;;;;;;;6.09;100.00;100143.94;5017506;28;20040;-71
2022/02/09 02:09:22;;;;;;;2.08;1.35;;;;;;;6.26;100.00;100163.91;5020501;28;20048;-71
2022/02/09 02:16:59;;;;;;;3.83;1.25;;;;;;;6.19;100.00;100135.03;5020009;28;20987;-70
2022/02/09 02:27:08;;;;;;;2.92;1.83;;;;;;;6.30;100.00;100137.56;5021725;28;20483;-70
2022/02/09 02:37:49;;;;;;;2.78;1.25;;;;;;;6.32;100.00;100120.31;5021939;28;20055;-70
2022/02/09 02:47:54;;;;;;;2.78;1.00;;;;;;;6.13;100.00;100105.06;5017531;28;20057;-70
2022/02/09 03:15:08;;;;;;;1.70;1.00;;;;;;;6.22;100.00;100111.41;5016401;28;20060;-71
2022/02/09 03:17:37;;;;;;;2.30;1.33;;;;;;;6.26;100.00;100114.66;5016194;28;20029;-71
2022/02/09 03:20:16;;;;;;;1.52;1.23;;;;;;;6.18;100.00;100090.34;5020077;28;20479;-71
2022/02/09 03:23:15;;;;;;;3.33;1.20;;;;;;;6.14;100.00;100077.19;5017767;28;20025;-71
2022/02/09 03:50:23;;;;;;;3.30;1.20;;;;;;;6.24;100.00;100105.91;5009041;28;20510;-69
2022/02/09 03:55:19;;;;;;;2.22;0.90;;;;;;;6.25;100.00;100092.31;5016732;28;20072;-69
2022/02/09 03:57:45;;;;;;;2.15;0.77;;;;;;;5.97;100.00;100045.66;5018877;28;20665;-69
2022/02/09 04:00:17;;;;;;;3.05;0.85;;;;;;;6.22;100.00;100081.84;5018364;28;20021;-69
2022/02/09 04:02:52;;;;;;;1.50;1.02;;;;;;;6.22;100.00;100081.84;5023347;28;20017;-69
2022/02/09 04:05:18;;;;;;;1.23;0.80;;;;;;;6.12;100.00;100071.09;5028624;28;20071;-78
2022/02/09 04:07:44;;;;;;;1.60;0.93;;;;;;;6.22;100.00;100075.63;5028998;28;20033;-80
2022/02/09 04:10:15;;;;;;;1.88;0.85;;;;;;;5.98;100.00;100035.78;5016314;28;20101;-75
2022/02/09 04:13:31;;;;;;;4.70;3.10;;;;;;;6.24;100.00;100077.19;5033884;28;20056;-66
2022/02/09 04:18:18;;;;;;;2.97;2.00;;;;;;;6.10;100.00;100077.59;5039323;28;20272;-79
2022/02/09 04:37:50;;;;;;;2.80;1.40;;;;;;;6.11;100.00;100068.59;5030336;28;20573;-76
2022/02/09 04:40:05;;;;;;;1.45;1.10;;;;;;;5.96;100.00;100037.78;5024238;28;20033;-75
2022/02/09 04:51:24;;;;;;;2.08;1.38;;;;;;;5.99;100.00;100075.09;5039677;28;20426;-70
2022/02/09 04:54:16;;;;;;;2.10;1.45;;;;;;;6.02;100.00;100061.38;5025984;28;20646;-69
2022/02/09 04:56:28;;;;;;;3.25;1.65;;;;;;;6.14;100.00;100065.59;5033020;28;20032;-76
2022/02/09 04:59:14;;;;;;;1.55;1.30;;;;;;;6.07;100.00;100051.03;5028485;28;20075;-73
2022/02/09 05:17:59;;;;;;;2.20;1.40;;;;;;;6.02;100.00;100051.47;5030193;28;20502;-75
2022/02/09 05:26:05;;;;;;;4.32;2.70;;;;;;;6.18;100.00;100058.94;5028831;28;20526;-76
2022/02/09 05:28:30;;;;;;;2.78;1.50;;;;;;;6.20;100.00;100051.56;5025074;28;20025;-74
2022/02/09 05:30:56;;;;;;;4.60;1.83;;;;;;;6.27;100.00;100068.81;5027920;28;20029;-76
2022/02/09 05:33:22;;;;;;;3.78;2.10;;;;;;;6.23;100.00;100039.69;5026602;28;20092;-73
2022/02/09 05:35:49;;;;;;;7.57;3.40;;;;;;;6.33;99.95;100054.78;5028082;28;20052;-78
2022/02/09 05:38:16;;;;;;;9.35;3.65;;;;;;;6.03;100.00;100017.41;5027943;28;20076;-74
2022/02/09 05:40:44;;;;;;;5.47;2.97;;;;;;;6.23;100.00;100055.81;5021787;28;20079;-73
2022/02/09 05:43:10;;;;;;;3.13;1.70;;;;;;;6.11;100.00;100057.84;5020956;28;20025;-70
2022/02/09 05:51:46;;;;;;;4.32;3.00;;;;;;;5.95;100.00;100052.16;5029928;28;20039;-73
2022/02/09 05:54:17;;;;;;;4.20;2.83;;;;;;;6.09;100.00;100066.03;5023726;28;20069;-73
2022/02/09 05:57:10;;;;;;;4.72;2.40;;;;;;;6.00;100.00;100061.53;5018980;28;20064;-71
2022/02/09 05:59:34;;;;;;;3.20;1.90;;;;;;;5.98;100.00;100051.91;5018374;28;20064;-72
2022/02/09 06:01:59;;;;;;;5.13;1.75;;;;;;;5.81;100.00;100040.00;5020650;28;20021;-73
2022/02/09 06:04:24;;;;;;;2.92;1.70;;;;;;;5.67;100.00;100019.81;5024814;28;20037;-74
2022/02/09 06:06:50;;;;;;;3.35;2.00;;;;;;;5.77;100.00;100034.09;5020923;28;20068;-76
2022/02/09 06:09:16;;;;;;;2.70;1.80;;;;;;;5.94;100.00;100070.13;5027422;28;20037;-77
2022/02/09 06:11:47;;;;;;;3.67;2.20;;;;;;;5.95;100.00;100069.16;5028033;28;20044;-78
2022/02/09 06:22:03;;;;;;;7.68;2.58;;;;;;;6.00;100.00;100071.41;5016764;28;20095;-73
2022/02/09 06:24:29;;;;;;;6.20;2.80;;;;;;;5.99;100.00;100070.56;5026828;28;20029;-72
2022/02/09 06:26:54;;;;;;;8.57;2.85;;;;;;;5.92;100.00;100066.69;5025082;28;20443;-77
2022/02/09 06:29:20;;;;;;;9.38;3.17;;;;;;;5.62;100.00;100014.84;5022824;28;20026;-77
2022/02/09 06:31:47;;;;;;;7.43;3.33;;;;;;;5.76;100.00;100040.41;5024233;28;20041;-75
2022/02/09 06:34:15;;;;;;;9.63;3.17;;;;;;;5.76;100.00;100035.06;5025640;28;20025;-78
2022/02/09 06:36:44;;;;;;;8.30;3.30;;;;;;;5.72;100.00;100030.97;5022078;28;20028;-78
2022/02/09 06:39:11;;;;;;;11.85;2.97;;;;;;;5.90;100.00;100050.75;5022038;28;20033;-73
2022/02/09 06:41:37;;;;;;;10.43;3.40;;;;;;;6.07;99.93;100053.72;5024750;28;20025;-71
2022/02/09 06:44:03;;;;;;;11.68;3.20;;;;;;;6.12;99.89;100065.72;5021851;28;20372;-72
2022/02/09 06:46:35;;;;;;;10.48;4.63;;;;;;;6.20;99.53;100070.38;5018635;28;22795;-73
2022/02/09 06:49:07;;;;;;;11.48;5.03;;;;;;;5.98;99.60;100041.16;5018662;28;20108;-77
2022/02/09 06:51:37;;;;;;;13.32;5.43;;;;;;;6.22;99.06;100067.56;5023280;28;20040;-77
2022/02/09 06:54:13;;;;;;;14.43;5.97;;;;;;;6.15;99.61;100068.13;5021996;28;20029;-75
2022/02/09 06:56:58;;;;;;;9.90;5.68;;;;;;;6.20;98.58;100061.47;5021994;28;20022;-78
2022/02/09 06:59:34;;;;;;;9.10;5.05;;;;;;;6.12;98.66;100057.66;5016239;28;20119;-75
2022/02/09 07:02:05;;;;;;;10.15;4.97;;;;;;;6.32;97.78;100066.56;5021183;28;20087;-73
2022/02/09 07:04:32;;;;;;;9.32;4.20;;;;;;;6.03;97.71;100020.09;5021895;28;20097;-79
2022/02/09 07:06:57;;;;;;;9.30;4.05;;;;;;;6.12;97.82;100041.53;5029928;28;20021;-77
2022/02/09 07:09:23;;;;;;;8.73;3.65;;;;;;;6.08;97.77;100032.09;5022555;28;20394;-77
2022/02/09 07:11:50;;;;;;;10.90;4.13;;;;;;;6.23;97.97;100055.81;5052541;28;20034;-75
2022/02/09 07:14:20;;;;;;;9.48;4.70;;;;;;;6.22;98.37;100036.16;5035586;28;20030;-70
2022/02/09 07:16:46;;;;;;;11.55;5.20;;;;;;;6.36;98.20;100067.94;5025436;28;20033;-70
2022/02/09 07:19:11;;;;;;;9.77;4.57;;;;;;;6.34;97.11;100053.81;5022032;28;20025;-76
2022/02/09 07:21:39;;;;;;;13.65;5.03;;;;;;;6.44;96.85;100072.59;5026701;28;20025;-74
2022/02/09 07:24:07;;;;;;;12.50;5.03;;;;;;;6.51;96.22;100078.25;5008476;28;20376;-68
2022/02/09 07:26:48;;;;;;;11.38;4.38;;;;;;;6.58;95.48;100071.31;5007385;28;20037;-69
2022/02/09 07:29:16;;;;;;;7.93;3.97;;;;;;;6.69;94.55;100063.03;5014151;28;20248;-73
2022/02/09 07:31:43;;;;;;;9.43;3.65;;;;;;;6.76;95.09;100077.59;5014675;28;20153;-67
2022/02/09 07:34:09;;;;;;;10.77;5.25;;;;;;;6.52;94.94;100040.47;5013257;28;20079;-66
2022/02/09 07:36:39;;;;;;;9.25;4.20;;;;;;;6.60;96.14;100063.91;5016189;28;20033;-71
2022/02/09 07:39:07;;;;;;;7.57;3.47;;;;;;;6.60;96.88;100069.28;5027177;28;20105;-79
2022/02/09 07:41:35;;;;;;;5.30;3.40;;;;;;;6.56;97.20;100054.47;5021792;28;20471;-69
2022/02/09 07:46:55;;;;;;;7.03;3.53;;;;;;;6.65;97.25;100058.09;5025125;28;20111;-75
2022/02/09 07:49:26;;;;;;;8.75;3.88;;;;;;;6.78;94.47;100062.13;5017750;28;20534;-75
2022/02/09 07:52:04;;;;;;;7.55;3.58;;;;;;;6.93;94.30;100078.66;5026650;28;20384;-75
2022/02/09 07:54:29;;;;;;;10.32;3.47;;;;;;;7.00;93.91;100060.94;5017835;28;20061;-72
2022/02/09 07:56:55;;;;;;;12.25;4.60;;;;;;;7.07;93.61;100077.31;5017178;28;20056;-68
2022/02/09 07:59:20;;;;;;;8.00;3.50;;;;;;;7.19;92.47;100073.41;5014518;28;20029;-68
2022/02/09 08:01:46;;;;;;;6.28;3.75;;;;;;;7.21;92.51;100070.59;5015168;28;20108;-69
2022/02/09 08:04:12;;;;;;;7.53;3.70;;;;;;;7.24;92.15;100068.44;5012317;28;20037;-71
2022/02/09 08:06:39;;;;;;;9.93;3.75;;;;;;;7.44;90.86;100068.31;5013063;28;20044;-68
2022/02/09 08:09:17;;;;;;;9.23;3.92;;;;;;;7.75;88.90;100055.31;5017057;28;20037;-65
2022/02/09 08:11:56;;;;;;;10.73;3.28;;;;;;;7.80;89.04;100057.56;5015507;28;20026;-66
2022/02/09 08:28:07;;;;;;;7.00;3.60;;;;;;;9.17;80.50;100055.94;5018278;28;20599;-71
2022/02/09 08:33:16;;;;;;;6.55;3.20;;;;;;;10.70;76.45;100048.22;5028672;28;20387;-66
2022/02/09 08:35:41;;;;;;;;;;;;;;;14.52;62.29;100039.97;5014378;28;20368;-77
2022/02/09 08:38:07;;;;;;;5.80;2.45;;;;;;;17.27;52.30;100017.31;5032301;28;19967;-78
2022/02/09 08:40:32;;;;;;;3.20;1.70;;;;;;;18.77;46.77;99963.72;5022180;28;20032;-77
2022/02/09 08:42:59;;;;;;;3.13;2.05;;;;;;;19.61;44.42;99997.66;5031171;28;20080;-81
2022/02/09 08:45:25;;;;;;;7.47;1.98;;;;;;;20.25;41.19;100008.97;5028536;28;20455;-78
2022/02/09 08:47:51;;;;;;;4.00;1.80;;;;;;;20.58;40.63;100015.81;5026042;28;20116;-77
2022/02/09 08:50:17;;;;;;;4.15;1.77;;;;;;;20.95;39.23;99980.59;5028318;28;20387;-79
2022/02/09 08:52:42;;;;;;;7.05;3.33;;;;;;;21.82;36.93;100009.03;5025808;28;20022;-75
2022/02/09 08:55:09;;;;;;;5.07;2.35;;;;;;;21.98;37.12;100010.13;5017512;28;20025;-67
2022/02/09 08:57:35;;;;;;;4.40;1.65;;;;;;;22.21;36.64;99999.00;5017393;28;20029;-74
2022/02/09 09:00:07;;;;;;;3.25;1.58;;;;;;;;;;5024582;28;20914;-74
2022/02/09 09:02:35;;;;;;;3.50;1.60;;;;;;;22.53;35.78;100001.13;5014992;28;20029;-74
2022/02/09 09:05:12;;;;;;;4.55;2.05;;;;;;;21.56;36.92;100004.97;5019406;28;20032;-74
2022/02/09 09:07:39;;;;;;;2.90;1.40;;;;;;;21.75;36.16;99978.06;5016360;28;20026;-74
2022/02/09 10:04:30;;;;;;;3.67;1.00;;;;;;;23.99;32.39;99954.59;5025047;28;20431;-77
2022/02/09 10:34:44;;;;;;;4.55;1.70;;;;;;;20.42;36.28;99939.53;5009263;28;20383;-70
2022/02/09 10:37:09;;;;;;;6.35;1.85;;;;;;;20.44;36.54;99938.22;5014689;28;20684;-69
2022/02/09 10:39:55;;;;;;;4.82;1.95;;;;;;;20.67;36.97;99950.28;5013408;28;20029;-68
2022/02/09 10:42:32;;;;;;;3.75;1.63;;;;;;;20.60;36.10;99920.19;5014568;28;20022;-69
2022/02/09 10:45:28;;;;;;;6.75;2.25;;;;;;;21.24;35.65;99950.38;5011164;28;20040;-70
2022/02/09 10:47:52;;;;;;;6.35;2.15;;;;;;;22.08;34.29;99936.72;5014179;28;20024;-69
2022/02/09 10:50:39;;;;;;;7.15;2.55;;;;;;;21.88;34.99;99928.16;5013308;28;20033;-68
2022/02/09 10:53:11;;;;;;;6.60;2.20;;;;;;;21.66;35.12;99915.09;5014852;28;20420;-69
2022/02/09 10:55:41;;;;;;;5.78;2.05;;;;;;;20.84;36.58;99922.88;5018620;28;20029;-67
2022/02/09 10:58:13;;;;;;;5.13;2.10;;;;;;;21.11;35.92;99906.63;5013303;28;20033;-66
2022/02/09 11:00:43;;;;;;;6.85;2.10;;;;;;;22.74;33.70;99908.47;5012550;28;20491;-66
2022/02/09 11:03:15;;;;;;;5.72;2.28;;;;;;;21.79;34.41;99885.56;5012365;28;20047;-66
2022/02/09 11:05:45;;;;;;;5.60;1.83;;;;;;;22.58;33.43;99895.56;5013968;28;20040;-66
2022/02/09 11:08:11;;;;;;;6.43;2.17;;;;;;;21.44;34.80;99881.97;5010019;28;20029;-66
2022/02/09 11:10:36;;;;;;;5.65;2.17;;;;;;;21.30;35.50;99899.84;5017553;28;20091;-65
2022/02/09 11:13:04;;;;;;;6.03;2.22;;;;;;;20.55;37.56;99890.66;5028272;28;20095;-63
2022/02/09 11:15:30;;;;;;;5.90;2.03;;;;;;;21.79;35.64;99878.13;5031780;28;20508;-64
2022/02/09 11:17:56;;;;;;;7.55;2.78;;;;;;;22.11;34.40;99874.75;5028504;28;20115;-65
2022/02/09 11:20:28;;;;;;;3.88;2.00;;;;;;;21.96;34.13;99875.38;5021687;28;20045;-64
2022/02/09 11:22:54;;;;;;;5.63;2.25;;;;;;;21.65;34.98;99841.00;5026522;28;20048;-64
2022/02/09 11:25:31;;;;;;;4.53;2.13;;;;;;;20.53;36.35;99867.19;5031652;28;20112;-63
2022/02/09 11:28:24;;;;;;;5.43;1.90;;;;;;;20.23;37.64;99870.13;5028866;28;20045;-63
2022/02/09 11:31:11;;;;;;;5.43;2.10;;;;;;;22.14;34.36;99865.16;5029814;28;20030;-63
2022/02/09 11:33:55;;;;;;;5.78;2.40;;;;;;;21.98;34.18;99862.19;5031734;28;20053;-63
2022/02/09 11:36:36;;;;;;;4.25;1.95;;;;;;;21.56;34.78;99840.59;5030519;28;20479;-67
2022/02/09 11:41:59;;;;;;;5.03;2.10;;;;;;;22.22;34.49;99854.56;5031256;28;20036;-63
2022/02/09 11:44:53;;;;;;;4.97;2.05;;;;;;;21.77;34.66;99855.53;5028553;28;20037;-65
2022/02/09 12:09:41;;;;;;;3.70;1.50;;;;;;;21.73;34.75;99826.81;5025810;28;20036;-65
2022/02/09 12:12:14;;;;;;;4.70;1.50;;;;;;;21.56;35.67;99828.72;5012001;28;20036;-63
2022/02/09 12:20:28;;;;;;;8.10;1.67;;;;;;;20.84;35.87;99786.19;5012826;28;20126;-62
2022/02/09 12:23:24;;;;;;;4.40;2.10;;;;;;;21.57;35.44;99802.88;5011625;28;20076;-62
2022/02/09 12:25:51;;;;;;;8.77;1.90;;;;;;;20.85;36.25;99809.00;5014968;28;20033;-62
2022/02/09 12:28:22;;;;;;;5.20;1.65;;;;;;;21.71;35.39;99786.84;5011728;28;20143;-63
2022/02/09 12:30:48;;;;;;;6.68;1.95;;;;;;;22.08;34.57;99792.59;5011382;28;20033;-61
2022/02/09 12:33:24;;;;;;;5.22;1.55;;;;;;;23.13;33.39;99792.47;5010783;28;20036;-63
2022/02/09 12:35:51;;;;;;;3.50;1.63;;;;;;;22.58;34.48;99786.06;5030008;28;20124;-69
2022/02/09 12:38:29;;;;;;;3.88;1.48;;;;;;;22.63;33.50;99788.06;5012614;28;20033;-70
2022/02/09 12:41:11;;;;;;;4.50;1.35;;;;;;;21.81;34.03;99753.94;5015765;28;20131;-70
2022/02/09 12:43:58;;;;;;;4.22;1.67;;;;;;;22.00;34.83;99791.09;5016036;28;20031;-70
2022/02/09 12:46:35;;;;;;;4.50;1.73;;;;;;;19.69;37.87;99782.38;5016191;28;20180;-70
2022/02/09 12:49:15;;;;;;;4.90;1.60;;;;;;;21.01;36.39;99791.69;5012309;28;20727;-68
2022/02/09 12:51:43;;;;;;;3.72;1.50;;;;;;;20.46;37.05;99787.63;5011984;28;20037;-68
2022/02/09 12:54:10;;;;;;;5.00;1.38;;;;;;;22.09;34.59;99767.53;5013431;28;21580;-68
2022/02/09 12:56:38;;;;;;;3.58;1.40;;;;;;;22.50;33.54;99762.53;5011817;28;20095;-69
2022/02/09 12:59:07;;;;;;;3.73;1.40;;;;;;;22.83;33.28;99755.19;5012285;28;20025;-68
2022/02/09 13:01:40;;;;;;;;;;;;;;;21.60;34.69;99783.91;5012913;28;21007;-68
2022/02/09 13:04:06;;;;;;;3.08;1.30;;;;;;;23.02;32.74;99761.19;5014908;28;19913;-68
2022/02/09 13:06:31;;;;;;;5.18;1.65;;;;;;;23.28;32.56;99767.75;5011859;28;20123;-68
2022/02/09 13:08:57;;;;;;;3.97;1.33;;;;;;;24.36;31.95;99755.44;5027234;28;20457;-68
2022/02/09 13:11:30;;;;;;;2.42;1.20;;;;;;;23.29;32.20;99752.88;5030675;28;20042;-68
2022/02/09 13:14:08;;;;;;;5.57;1.50;;;;;;;22.65;33.16;99753.63;5030897;28;20037;-68
2022/02/09 14:47:14;;;;;;;2.25;1.00;;;;;;;20.77;36.42;99679.06;5024723;28;20025;-67
2022/02/09 14:48:10;;;;;;;3.13;1.05;;;;;;;21.08;36.10;99681.50;5029615;28;20126;-68
2022/02/09 14:55:20;;;;;;;3.55;1.08;;;;;;;19.91;38.49;99670.84;5024073;28;20181;-67
2022/02/09 14:57:59;;;;;;;4.13;1.20;;;;;;;19.72;38.58;99672.06;5022132;28;20045;-67
2022/02/09 15:00:25;;;;;;;1.85;1.08;;;;;;;19.38;39.60;99674.59;5025097;28;20052;-67
2022/02/09 15:03:02;;;;;;;3.85;1.23;;;;;;;18.81;40.39;99661.47;5026234;28;20021;-67
2022/02/09 15:10:49;;;;;;;3.60;1.27;;;;;;;15.30;48.10;99669.84;4993335;28;20041;-68
2022/02/09 15:13:29;;;;;;;4.55;1.20;;;;;;;14.83;49.63;99679.13;5027036;28;20071;-69
2022/02/09 15:19:03;;;;;;;4.80;1.50;;;;;;;14.16;51.25;99680.84;5019816;28;20036;-69
2022/02/09 15:21:36;;;;;;;3.63;1.17;;;;;;;15.08;50.00;99680.13;5026048;28;20048;-67
2022/02/09 15:24:03;;;;;;;5.97;1.10;;;;;;;16.25;46.73;99641.13;5027446;28;20104;-68
2022/02/09 15:26:28;;;;;;;5.03;1.40;;;;;;;17.30;44.39;99676.88;5027368;28;20547;-68
2022/02/09 15:28:56;;;;;;;3.65;1.17;;;;;;;18.00;42.93;99671.06;5026280;28;20175;-67
2022/02/09 15:31:30;;;;;;;4.57;1.27;;;;;;;17.51;43.59;99670.97;5021840;28;20125;-66
2022/02/09 15:34:11;;;;;;;3.35;1.40;;;;;;;17.70;43.40;99671.78;5023683;28;20148;-67
2022/02/09 15:36:51;;;;;;;3.25;1.08;;;;;;;18.26;42.32;99667.13;5033041;28;20412;-67
2022/02/09 15:39:18;;;;;;;4.82;1.25;;;;;;;18.05;43.18;99668.47;5026874;28;20026;-67
2022/02/09 16:07:25;;;;;;;6.07;1.10;;;;;;;15.68;49.27;99651.88;5027406;28;20040;-68
2022/02/09 16:09:32;;;;;;;4.68;1.20;;;;;;;15.34;49.28;99646.53;5027856;28;20092;-68
2022/02/09 16:23:04;;;;;;;4.13;1.60;;;;;;;12.13;58.73;99650.03;5022769;28;20040;-68
2022/02/09 16:34:21;;;;;;;13.00;5.25;;;;;;;10.91;66.95;99650.47;5028824;28;20457;-68
2022/02/09 16:44:57;;;;;;;7.63;3.15;;;;;;;10.25;71.14;99647.47;5015260;28;20040;-68
2022/02/09 16:52:23;;;;;;;12.40;4.63;;;;;;;9.44;75.20;99628.03;5016655;28;20033;-67
2022/02/09 17:15:28;;;;;;;8.73;3.10;;;;;;;8.45;82.17;99628.44;5027870;28;20051;-67
2022/02/09 17:19:01;;;;;;;12.32;3.67;;;;;;;8.55;83.68;99659.63;5024706;28;20040;-68
2022/02/09 17:21:29;;;;;;;9.30;4.13;;;;;;;8.30;84.34;99641.72;5027100;28;20029;-72
2022/02/09 17:23:58;;;;;;;15.45;4.25;;;;;;;8.12;84.92;99636.50;5022929;28;20025;-74
2022/02/09 17:26:25;;;;;;;10.40;3.72;;;;;;;8.13;86.38;99660.59;5023532;28;20450;-68
2022/02/09 17:28:58;;;;;;;11.93;3.78;;;;;;;8.07;87.09;99658.56;5027146;28;20026;-68
2022/02/09 17:37:01;;;;;;;6.60;2.17;;;;;;;7.55;90.26;99652.56;5032089;28;20075;-77
2022/02/09 17:58:22;;;;;;;8.75;4.15;;;;;;;6.86;92.96;99654.38;5033505;28;20072;-77
2022/02/09 18:00:50;;;;;;;8.82;4.13;;;;;;;6.77;93.05;99656.19;5033767;28;20039;-77
2022/02/09 18:03:16;;;;;;;9.40;4.50;;;;;;;6.71;94.08;99646.91;5031335;28;20127;-77
2022/02/09 18:05:47;;;;;;;10.13;4.30;;;;;;;6.56;93.99;99632.34;5031361;28;20064;-78
2022/02/09 18:08:39;;;;;;;7.38;3.88;;;;;;;6.39;93.92;99599.09;5030537;28;20491;-78
2022/02/09 18:11:12;;;;;;;7.85;4.00;;;;;;;6.66;93.98;99659.16;5032787;28;20052;-78
2022/02/09 18:30:08;;;;;;;16.52;7.30;;;;;;;5.80;100.00;99633.66;5024835;28;20088;-78
2022/02/09 18:43:20;;;;;;;32.03;13.60;;;;;;;5.58;100.00;99653.75;5017228;28;20172;-78
2022/02/09 18:46:17;;;;;;;24.75;11.23;;;;;;;5.36;100.00;99627.31;5025742;28;20051;-78
2022/02/09 18:57:01;;;;;;;17.63;8.90;;;;;;;5.22;100.00;99652.81;5035036;28;20068;-77
2022/02/09 18:59:57;;;;;;;24.70;10.43;;;;;;;5.20;100.00;99655.63;5030801;28;20033;-73
2022/02/09 19:04:49;;;;;;;34.92;14.63;;;;;;;5.17;100.00;99655.09;5029472;28;20057;-71
2022/02/09 19:27:07;;;;;;;34.35;14.43;;;;;;;4.69;100.00;99635.50;5028913;28;20029;-70
2022/02/09 19:32:56;;;;;;;34.58;14.80;;;;;;;4.80;100.00;99626.44;4998985;28;20099;-70
2022/02/09 19:48:35;;;;;;;29.70;11.82;;;;;;;4.33;100.00;99629.06;5026220;28;20522;-73
2022/02/09 19:51:21;;;;;;;28.42;11.02;;;;;;;4.28;100.00;99615.28;5023387;28;20100;-71
2022/02/09 19:56:31;;;;;;;22.63;10.32;;;;;;;4.31;100.00;99620.34;5015129;28;20123;-71
2022/02/09 20:01:24;;;;;;;24.27;11.50;;;;;;;4.05;100.00;99586.09;5025348;28;20131;-71
2022/02/09 20:03:50;;;;;;;24.88;11.10;;;;;;;3.94;100.00;99597.81;5029757;28;20036;-70
2022/02/09 20:06:15;;;;;;;23.38;9.85;;;;;;;3.85;100.00;99596.00;5027996;28;20033;-70
2022/02/09 20:08:41;;;;;;;22.08;11.50;;;;;;;3.72;100.00;99590.91;5028761;28;20400;-71
2022/02/09 20:11:10;;;;;;;15.00;8.00;;;;;;;3.64;100.00;99603.28;5025914;28;20767;-71
2022/02/09 20:13:36;;;;;;;10.77;5.75;;;;;;;3.53;100.00;99606.09;5027608;28;20035;-71
2022/02/09 20:16:02;;;;;;;17.50;7.20;;;;;;;3.50;100.00;99626.78;5025206;28;20025;-72
2022/02/09 20:18:28;;;;;;;17.83;7.22;;;;;;;3.38;100.00;99627.03;5026072;28;20033;-70
2022/02/09 20:20:56;;;;;;;13.43;6.18;;;;;;;3.19;100.00;99611.78;5024249;28;20040;-71
2022/02/09 20:23:22;;;;;;;13.75;4.75;;;;;;;3.18;100.00;99621.66;5028006;28;20021;-70
2022/02/09 20:25:48;;;;;;;10.48;4.68;;;;;;;3.22;100.00;99608.84;5024946;28;20037;-70
2022/02/09 20:28:14;;;;;;;12.63;5.47;;;;;;;3.42;100.00;99621.28;5027207;28;20430;-70
2022/02/09 20:30:44;;;;;;;17.17;8.35;;;;;;;3.37;100.00;99594.09;5024929;28;20029;-70
2022/02/09 20:33:15;;;;;;;15.63;7.65;;;;;;;3.27;100.00;99603.91;5031765;28;20032;-71
2022/02/09 20:35:41;;;;;;;15.73;9.35;;;;;;;3.56;100.00;99622.72;5023920;28;20036;-70
2022/02/09 20:38:11;;;;;;;27.55;13.68;;;;;;;3.48;100.00;99623.41;5028772;28;20033;-71
2022/02/09 20:40:49;;;;;;;22.67;11.38;;;;;;;3.37;100.00;99598.59;5035302;28;20030;-71
2022/02/09 20:43:17;;;;;;;14.57;8.05;;;;;;;3.47;100.00;99620.88;5042664;28;20096;-71
2022/02/09 20:45:51;;;;;;;13.70;6.60;;;;;;;3.13;100.00;99583.78;5039654;28;20033;-72
2022/02/09 20:48:22;;;;;;;11.57;6.80;;;;;;;3.01;100.00;99585.72;5034982;28;20037;-72
2022/02/09 20:50:48;;;;;;;12.57;6.35;;;;;;;3.11;100.00;99608.94;5024952;28;20033;-72
2022/02/09 20:53:14;;;;;;;33.70;14.27;;;;;;;3.37;100.00;99622.69;5020638;28;20034;-72
2022/02/09 20:55:41;;;;;;;44.90;16.55;;;;;;;3.38;100.00;99638.59;5022128;28;20041;-72
2022/02/09 20:58:06;;;;;;;20.55;10.75;;;;;;;3.28;100.00;99627.88;5025295;28;20032;-71
2022/02/09 21:03:25;;;;;;;19.35;10.25;;;;;;;3.11;100.00;99638.34;5023397;28;20053;-72
2022/02/09 21:09:01;;;;;;;18.00;8.85;;;;;;;2.68;100.00;99592.19;5025952;28;20562;-72
2022/02/09 21:20:28;;;;;;;15.32;7.88;;;;;;;2.60;100.00;99616.91;5023591;28;20427;-72
2022/02/09 21:33:32;;;;;;;20.75;8.85;;;;;;;2.53;100.00;99645.09;5026830;28;20044;-71
2022/02/09 21:44:32;;;;;;;12.63;6.85;;;;;;;2.79;100.00;99632.19;5021099;28;20048;-71
2022/02/09 21:49:17;;;;;;;11.90;6.38;;;;;;;2.53;100.00;99618.41;5025995;28;20048;-72
2022/02/09 21:52:46;;;;;;;17.77;8.05;;;;;;;2.49;100.00;99610.78;5024602;28;20694;-71
2022/02/09 21:55:44;;;;;;;18.73;9.10;;;;;;;2.65;100.00;99624.53;5022671;28;20036;-74
2022/02/09 21:58:22;;;;;;;18.00;8.60;;;;;;;2.55;100.00;99618.28;5021283;28;20045;-73
2022/02/09 22:06:39;;;;;;;15.18;7.78;;;;;;;2.37;100.00;99610.03;5019487;28;20112;-72
2022/02/09 22:22:16;;;;;;;17.80;8.32;;;;;;;1.88;100.00;99588.31;5025055;28;20026;-71
2022/02/09 22:27:28;;;;;;;19.55;8.93;;;;;;;1.85;100.00;99577.91;5022592;28;20028;-71
2022/02/09 22:45:30;;;;;;;35.40;13.38;;;;;;;1.73;100.00;99590.47;5025216;28;20048;-71
2022/02/09 22:46:49;;;;;;;34.38;15.50;;;;;;;1.22;100.00;99536.94;5027152;28;20166;-72
2022/02/09 22:54:28;;;;;;;23.92;8.43;;;;;;;1.20;100.00;99554.88;5028052;28;20030;-72
2022/02/09 22:56:54;;;;;;;16.90;8.52;;;;;;;1.29;100.00;99573.63;5029580;28;20031;-73
2022/02/09 22:59:35;;;;;;;18.88;8.35;;;;;;;1.17;100.00;99549.78;5024392;28;20033;-72
2022/02/09 23:02:25;;;;;;;13.55;7.55;;;;;;;1.31;100.00;99574.34;5024826;28;20029;-72
2022/02/09 23:07:37;;;;;;;14.18;8.05;;;;;;;1.25;100.00;99552.69;5024886;28;20039;-72
2022/02/09 23:10:19;;;;;;;15.77;8.27;;;;;;;1.26;100.00;99538.41;5021503;28;20094;-72
2022/02/09 23:12:52;;;;;;;19.73;9.43;;;;;;;1.38;100.00;99550.69;5025467;28;20056;-72
2022/02/09 23:15:33;;;;;;;17.52;8.57;;;;;;;1.27;100.00;99534.75;5022698;28;20040;-72
2022/02/09 23:21:15;;;;;;;20.42;8.43;;;;;;;1.31;100.00;99552.19;5021755;28;20544;-72
